Macon Lake, Arkansas
Current Conditions -  °F | °C
As of 5:18 AM on Friday 24 Oct 2014 (Local Time) from KGLH Reporting Station
Haze Haze  
Wind Chill: 46°   Ceiling: Unl
Heat Index: 46°   Visibility: 1.7mi
Dew Point: 45°   Wind: 3mph
Humidity: 96%   Direction: 340°NNW
Pressure: 30.13"   Gusts: NA
Location:  33.3324°N, 91.3183°W
Report Text: KGLH 241018Z AUTO 34003KT 1 3/4SM BR CLR 08/07 A3013 RMK AO2 T00780072
Loading
Personal Weather Stations






























Interactive Weather Map
Tropical Storm Tracking
New forecast layout! Learn more

10-Day Weather Forecast

Advertisements
Track Severe Weather on mobile